createdAt,value
2018-12-26T00:00:33.350Z,10.20
2018-12-26T00:03:14.188Z,9.50
2018-12-26T00:05:54.393Z,9.43
2018-12-26T00:08:34.214Z,8.40
2018-12-26T00:11:14.421Z,10.57
2018-12-26T00:17:19.454Z,9.80
2018-12-26T00:19:59.333Z,7.27
2018-12-26T00:22:39.190Z,7.77
2018-12-26T00:25:19.358Z,10.90
2018-12-26T00:27:59.328Z,12.47
2018-12-26T00:30:39.496Z,7.70
2018-12-26T00:33:19.314Z,10.20
2018-12-26T00:39:24.598Z,7.23
2018-12-26T00:42:04.756Z,8.90
2018-12-26T00:44:44.770Z,10.57
2018-12-26T00:47:24.800Z,9.47
2018-12-26T00:50:04.781Z,12.43
2018-12-26T00:52:46.645Z,7.33
2018-12-26T00:55:26.668Z,8.03
2018-12-26T00:58:06.625Z,10.03
2018-12-26T01:00:46.800Z,9.53
2018-12-26T01:03:26.873Z,7.70
2018-12-26T01:06:06.879Z,8.40
2018-12-26T01:08:46.995Z,7.47
2018-12-26T01:11:27.105Z,10.43
2018-12-26T01:14:07.165Z,10.47
2018-12-26T01:16:47.032Z,7.80
2018-12-26T01:19:27.867Z,12.47
2018-12-26T01:22:07.764Z,9.73
2018-12-26T01:24:47.836Z,8.17
2018-12-26T01:31:07.012Z,11.13
2018-12-26T01:33:47.050Z,8.37
2018-12-26T01:36:27.157Z,9.20
2018-12-26T01:42:32.415Z,11.10
2018-12-26T01:45:12.449Z,7.40
2018-12-26T01:47:52.493Z,10.10
2018-12-26T01:50:32.500Z,8.50
2018-12-26T01:53:12.651Z,9.63
2018-12-26T01:55:52.528Z,8.20
2018-12-26T01:58:32.483Z,10.13
2018-12-26T02:01:12.437Z,8.77
2018-12-26T02:03:52.497Z,11.80
2018-12-26T02:06:32.619Z,7.50
2018-12-26T02:09:13.407Z,11.93
2018-12-26T02:11:53.512Z,10.00
2018-12-26T02:14:33.415Z,9.67
2018-12-26T02:17:13.392Z,10.30
2018-12-26T02:19:53.473Z,9.10
2018-12-26T02:26:12.483Z,10.30
2018-12-26T02:28:52.666Z,10.90
2018-12-26T02:31:32.541Z,9.93
2018-12-26T02:34:12.714Z,10.20
2018-12-26T02:36:52.513Z,10.77
2018-12-26T02:39:32.622Z,11.87
2018-12-26T02:42:12.495Z,10.73
2018-12-26T02:44:52.397Z,12.23
2018-12-26T02:47:32.538Z,11.13
2018-12-26T02:50:12.518Z,12.70
2018-12-26T02:52:52.500Z,12.57
2018-12-26T02:55:32.479Z,13.30
2018-12-26T02:58:12.629Z,12.50
2018-12-26T03:00:52.334Z,12.13
2018-12-26T03:03:34.382Z,13.53
2018-12-26T03:09:51.639Z,12.50
2018-12-26T03:15:51.019Z,13.60
2018-12-26T03:18:31.175Z,11.93
2018-12-26T03:21:11.243Z,13.83
2018-12-26T03:23:51.466Z,13.73
2018-12-26T03:26:31.098Z,13.60
2018-12-26T03:29:10.973Z,12.73
2018-12-26T03:31:50.930Z,12.87
2018-12-26T03:34:31.192Z,12.40
2018-12-26T03:37:11.215Z,13.47
2018-12-26T03:39:51.121Z,12.43
2018-12-26T03:42:31.063Z,12.70
2018-12-26T03:45:11.116Z,13.47
2018-12-26T03:47:51.036Z,13.03
2018-12-26T03:50:31.065Z,12.73
2018-12-26T03:53:11.138Z,13.03
2018-12-26T03:55:51.255Z,14.80
2018-12-26T03:58:31.348Z,15.23
2018-12-26T04:01:11.192Z,14.23
2018-12-26T04:14:02.566Z,14.30
2018-12-26T04:16:44.611Z,14.30
2018-12-26T04:19:24.493Z,14.33
2018-12-26T04:22:04.582Z,16.40
2018-12-26T04:27:53.017Z,16.10
2018-12-26T04:33:58.120Z,14.53
2018-12-26T04:36:38.005Z,14.83
2018-12-26T04:39:18.239Z,16.57
2018-12-26T04:45:20.280Z,15.30
2018-12-26T04:48:00.189Z,15.23
2018-12-26T04:57:14.258Z,14.90
2018-12-26T05:03:02.648Z,13.40
2018-12-26T05:05:42.845Z,13.23
2018-12-26T05:08:22.903Z,13.83
2018-12-26T05:11:02.789Z,13.67
2018-12-26T05:13:42.617Z,13.40
2018-12-26T05:16:22.618Z,13.23
2018-12-26T05:25:18.671Z,13.43
2018-12-26T05:28:00.560Z,13.40
2018-12-26T05:30:42.526Z,12.63
2018-12-26T05:33:22.452Z,14.27
2018-12-26T05:36:02.645Z,12.47
2018-12-26T05:38:42.691Z,12.10
2018-12-26T05:41:22.866Z,11.40
2018-12-26T05:44:02.870Z,11.50
2018-12-26T05:46:42.889Z,11.27
2018-12-26T05:49:23.003Z,12.00
2018-12-26T05:52:02.969Z,12.60
2018-12-26T05:54:43.028Z,12.87
2018-12-26T05:57:23.076Z,11.57
2018-12-26T06:00:03.256Z,11.97
2018-12-26T06:02:43.121Z,12.20
2018-12-26T06:05:23.217Z,11.27
2018-12-26T06:08:03.125Z,11.90
2018-12-26T06:10:43.204Z,13.30
2018-12-26T06:13:23.220Z,12.53
2018-12-26T06:16:03.595Z,12.03
2018-12-26T06:18:43.598Z,13.93
2018-12-26T06:21:23.495Z,12.60
2018-12-26T06:30:54.230Z,14.37
2018-12-26T06:33:34.326Z,15.80
2018-12-26T06:36:34.285Z,15.43
2018-12-26T06:39:14.223Z,18.47
2018-12-26T06:41:54.201Z,19.07
2018-12-26T06:44:35.325Z,18.70
2018-12-26T06:47:15.333Z,23.53
2018-12-26T06:49:55.498Z,18.40
2018-12-26T06:52:35.248Z,20.57
2018-12-26T06:55:15.157Z,19.70
2018-12-26T06:58:00.095Z,18.57
2018-12-26T07:00:37.278Z,19.10
2018-12-26T07:03:17.280Z,20.73
2018-12-26T07:05:57.446Z,20.23
2018-12-26T07:08:37.290Z,19.73
2018-12-26T07:11:17.332Z,20.20
2018-12-26T07:13:57.320Z,22.40
2018-12-26T07:16:37.366Z,24.60
2018-12-26T07:19:17.383Z,24.17
2018-12-26T07:21:57.473Z,25.00
2018-12-26T07:24:37.345Z,24.20
2018-12-26T07:30:50.425Z,26.20
2018-12-26T07:36:19.741Z,21.97
2018-12-26T07:38:59.711Z,26.40
2018-12-26T07:41:39.633Z,27.27
2018-12-26T07:44:19.850Z,30.20
2018-12-26T07:46:59.834Z,26.67
2018-12-26T07:49:59.596Z,30.80
2018-12-26T07:52:39.928Z,26.67
2018-12-26T07:55:19.845Z,30.67
2018-12-26T07:57:59.819Z,27.53
2018-12-26T08:00:39.904Z,26.77
2018-12-26T08:03:21.096Z,26.77
2018-12-26T08:06:20.855Z,28.87
2018-12-26T08:09:01.116Z,28.37
2018-12-26T08:11:41.206Z,25.80
2018-12-26T08:14:22.171Z,26.60
2018-12-26T08:17:02.511Z,28.93
2018-12-26T08:19:42.294Z,30.47
2018-12-26T08:22:22.401Z,30.20
2018-12-26T08:28:10.523Z,30.70
2018-12-26T08:30:50.511Z,33.70
2018-12-26T08:33:30.372Z,31.00
2018-12-26T08:36:10.440Z,33.37
2018-12-26T08:38:50.375Z,33.07
2018-12-26T08:41:30.596Z,36.30
2018-12-26T08:44:10.570Z,36.90
2018-12-26T08:46:50.248Z,44.07
2018-12-26T08:49:30.329Z,44.10
2018-12-26T08:52:10.507Z,42.50
2018-12-26T08:54:50.421Z,45.10
2018-12-26T08:57:30.503Z,38.90
2018-12-26T09:00:10.561Z,43.67
2018-12-26T09:02:50.544Z,39.70
2018-12-26T09:05:30.556Z,38.63
2018-12-26T09:08:10.454Z,44.20
2018-12-26T09:10:50.557Z,40.67
2018-12-26T09:13:30.487Z,39.73
2018-12-26T09:16:10.287Z,40.80
2018-12-26T09:18:50.351Z,42.20
2018-12-26T09:21:30.390Z,33.40
2018-12-26T09:24:09.760Z,40.13
2018-12-26T09:26:49.637Z,32.23
2018-12-26T09:32:37.855Z,37.37
2018-12-26T09:35:17.983Z,32.27
2018-12-26T09:37:57.987Z,33.93
2018-12-26T09:40:38.058Z,37.80
2018-12-26T09:43:18.250Z,32.77
2018-12-26T09:45:58.311Z,36.90
2018-12-26T09:48:38.743Z,31.10
2018-12-26T09:54:28.412Z,29.50
2018-12-26T09:57:08.371Z,28.13
2018-12-26T09:59:48.619Z,27.73
2018-12-26T10:06:08.012Z,32.07
2018-12-26T10:08:47.912Z,26.80
2018-12-26T10:11:27.880Z,24.47
2018-12-26T10:14:07.834Z,22.57
2018-12-26T10:16:47.970Z,25.67
2018-12-26T10:19:28.059Z,21.37
2018-12-26T10:25:16.273Z,20.30
2018-12-26T10:27:56.395Z,21.53
2018-12-26T10:30:36.465Z,20.73
2018-12-26T10:33:16.400Z,24.20
2018-12-26T10:35:56.482Z,20.83
2018-12-26T10:38:36.560Z,18.23
2018-12-26T10:41:16.641Z,22.40
2018-12-26T10:43:56.582Z,24.67
2018-12-26T10:50:14.958Z,19.40
2018-12-26T10:52:54.844Z,17.00
2018-12-26T10:55:34.932Z,19.70
2018-12-26T11:01:54.179Z,18.20
2018-12-26T11:04:34.264Z,19.10
2018-12-26T11:10:39.214Z,15.30
2018-12-26T11:16:46.443Z,15.50
2018-12-26T11:19:26.353Z,15.80
2018-12-26T11:22:06.298Z,16.23
2018-12-26T11:24:46.253Z,23.40
2018-12-26T11:27:27.317Z,21.17
2018-12-26T11:30:07.105Z,21.20
2018-12-26T11:32:47.145Z,18.23
2018-12-26T11:35:27.210Z,19.20
2018-12-26T11:38:07.043Z,17.67
2018-12-26T11:40:47.047Z,18.50
2018-12-26T11:43:27.090Z,19.33
2018-12-26T11:46:07.027Z,20.17
2018-12-26T11:48:47.164Z,20.90
2018-12-26T11:51:27.347Z,18.10
2018-12-26T11:57:32.744Z,21.70
2018-12-26T12:00:12.553Z,22.23
2018-12-26T12:02:53.495Z,20.53
2018-12-26T12:05:33.495Z,22.40
2018-12-26T12:08:13.615Z,19.80
2018-12-26T12:10:53.532Z,26.93
2018-12-26T12:13:33.636Z,22.23
2018-12-26T12:16:13.431Z,19.57
2018-12-26T12:18:53.295Z,20.10
2018-12-26T12:21:33.421Z,20.07
2018-12-26T12:24:13.384Z,17.87
2018-12-26T12:26:53.423Z,19.20
2018-12-26T12:29:36.055Z,21.23
2018-12-26T12:32:15.332Z,19.07
2018-12-26T12:34:56.272Z,19.70
2018-12-26T12:37:36.235Z,20.50
2018-12-26T12:40:17.208Z,22.50
2018-12-26T12:43:16.860Z,17.13
2018-12-26T12:45:57.095Z,18.27
2018-12-26T12:48:36.965Z,16.00
2018-12-26T12:51:17.915Z,15.87
2018-12-26T12:53:58.053Z,19.93
2018-12-26T12:56:38.176Z,14.13
2018-12-26T12:59:19.257Z,16.43
2018-12-26T13:02:01.429Z,16.37
2018-12-26T13:04:41.345Z,17.00
2018-12-26T13:07:21.192Z,15.13
2018-12-26T13:10:01.340Z,11.90
2018-12-26T13:12:41.318Z,12.73
2018-12-26T13:15:21.341Z,11.07
2018-12-26T13:18:01.246Z,11.97
2018-12-26T13:20:41.240Z,16.63
2018-12-26T13:23:21.106Z,13.17
2018-12-26T13:26:01.244Z,14.10
2018-12-26T13:28:41.365Z,12.67
2018-12-26T13:31:21.357Z,9.53
2018-12-26T13:37:40.574Z,10.60
2018-12-26T13:40:21.110Z,9.37
2018-12-26T13:46:33.572Z,11.20
2018-12-26T13:49:08.736Z,11.53
2018-12-26T13:51:48.984Z,11.87
2018-12-26T13:54:28.861Z,13.43
2018-12-26T13:57:09.835Z,13.33
2018-12-26T13:59:49.324Z,12.93
2018-12-26T14:02:27.774Z,14.80
2018-12-26T14:05:14.191Z,14.20
2018-12-26T14:08:00.816Z,14.97
2018-12-26T14:10:48.939Z,15.53
2018-12-26T14:13:37.084Z,15.70
2018-12-26T14:16:23.589Z,17.03
2018-12-26T14:19:10.065Z,16.07
2018-12-26T14:21:56.371Z,17.30
2018-12-26T14:24:43.279Z,18.40
2018-12-26T14:27:49.398Z,16.80
2018-12-26T14:30:35.849Z,16.13
2018-12-26T14:33:22.267Z,20.97
2018-12-26T14:36:08.715Z,18.63
2018-12-26T14:38:56.842Z,17.13
2018-12-26T14:41:45.011Z,24.90
2018-12-26T14:44:31.471Z,21.63
2018-12-26T14:47:11.526Z,25.33
2018-12-26T14:49:51.647Z,23.23
2018-12-26T14:52:31.661Z,23.80
2018-12-26T14:55:11.829Z,23.00
2018-12-26T14:57:51.923Z,25.70
2018-12-26T15:04:10.997Z,22.57
2018-12-26T15:06:51.125Z,26.80
2018-12-26T15:09:31.498Z,26.63
2018-12-26T15:12:11.615Z,27.30
2018-12-26T15:14:51.471Z,21.40
2018-12-26T15:17:31.512Z,28.80
2018-12-26T15:20:11.464Z,29.03
2018-12-26T15:22:51.746Z,28.63
2018-12-26T15:25:31.531Z,23.27
2018-12-26T15:28:11.499Z,25.63
2018-12-26T15:30:51.381Z,25.63
2018-12-26T15:33:31.282Z,25.50
2018-12-26T15:36:30.960Z,26.53
2018-12-26T15:39:11.148Z,27.03
2018-12-26T15:41:51.245Z,31.50
2018-12-26T15:44:31.222Z,25.57
2018-12-26T15:47:11.121Z,27.67
2018-12-26T15:49:51.269Z,27.33
2018-12-26T15:52:31.219Z,25.77
2018-12-26T15:55:11.158Z,29.60
2018-12-26T15:57:51.019Z,27.47
2018-12-26T16:00:37.375Z,30.20
2018-12-26T16:03:13.069Z,33.50
2018-12-26T16:09:12.288Z,27.27
2018-12-26T16:15:00.525Z,27.37
2018-12-26T16:17:40.559Z,25.57
2018-12-26T16:20:20.604Z,26.47
2018-12-26T16:23:00.634Z,27.60
2018-12-26T16:26:00.669Z,26.60
2018-12-26T16:28:40.849Z,26.70
2018-12-26T16:34:46.338Z,28.33
2018-12-26T16:40:51.700Z,27.07
2018-12-26T16:50:26.736Z,29.47
2018-12-26T16:53:00.184Z,29.90
2018-12-26T16:55:40.090Z,37.67
2018-12-26T16:58:20.209Z,29.00
2018-12-26T17:01:00.127Z,33.93
2018-12-26T17:03:40.041Z,33.70
2018-12-26T17:06:20.171Z,31.10
2018-12-26T17:08:59.969Z,36.37
2018-12-26T17:15:03.309Z,35.87
2018-12-26T17:17:44.157Z,36.70
2018-12-26T17:27:14.424Z,39.77
2018-12-26T17:29:54.528Z,40.60
2018-12-26T17:32:34.466Z,35.53
2018-12-26T17:35:14.552Z,42.27
2018-12-26T17:37:54.818Z,38.20
2018-12-26T17:40:34.619Z,38.77
2018-12-26T17:43:14.485Z,34.40
2018-12-26T17:45:54.572Z,37.10
2018-12-26T17:48:34.659Z,35.27
2018-12-26T17:51:14.783Z,35.83
2018-12-26T17:53:54.968Z,37.10
2018-12-26T17:56:34.756Z,34.67
2018-12-26T17:59:14.708Z,40.90
2018-12-26T18:01:56.740Z,41.37
2018-12-26T18:04:36.763Z,41.30
2018-12-26T18:07:16.599Z,47.93
2018-12-26T18:09:56.596Z,49.70
2018-12-26T18:12:36.680Z,56.03
2018-12-26T18:15:16.650Z,55.80
2018-12-26T18:17:56.808Z,51.63
2018-12-26T18:20:37.112Z,52.50
2018-12-26T18:23:17.250Z,52.43
2018-12-26T18:26:17.292Z,53.33
2018-12-26T18:28:58.418Z,52.43
2018-12-26T18:31:58.097Z,60.03
2018-12-26T18:34:38.392Z,55.17
2018-12-26T18:37:18.419Z,57.37
2018-12-26T18:39:58.439Z,64.30
2018-12-26T18:42:38.590Z,51.70
2018-12-26T18:45:18.346Z,57.67
2018-12-26T18:47:58.288Z,56.13
2018-12-26T18:50:38.275Z,60.90
2018-12-26T18:53:18.411Z,58.07
2018-12-26T18:55:58.496Z,61.23
2018-12-26T19:01:46.577Z,67.20
2018-12-26T19:04:26.459Z,50.03
2018-12-26T19:07:06.612Z,59.60
2018-12-26T19:09:46.610Z,67.40
2018-12-26T19:12:26.688Z,70.83
2018-12-26T19:15:07.587Z,69.03
2018-12-26T19:17:47.353Z,59.57
2018-12-26T19:20:28.541Z,63.07
2018-12-26T19:23:09.657Z,67.10
2018-12-26T19:25:49.752Z,71.10
2018-12-26T19:28:29.859Z,69.90
2018-12-26T19:31:09.776Z,72.17
2018-12-26T19:33:49.674Z,64.83
2018-12-26T19:36:29.780Z,59.73
2018-12-26T19:39:09.588Z,61.37
2018-12-26T19:41:49.665Z,58.10
2018-12-26T19:44:30.644Z,65.37
2018-12-26T19:47:10.748Z,61.03
2018-12-26T19:49:50.549Z,58.97
2018-12-26T19:52:30.521Z,55.40
2018-12-26T19:55:10.382Z,56.97
2018-12-26T19:57:51.349Z,58.53
2018-12-26T20:00:31.363Z,59.83
2018-12-26T20:03:11.345Z,53.67
2018-12-26T20:05:52.664Z,53.07
2018-12-26T20:08:33.804Z,46.57
2018-12-26T20:11:13.852Z,49.07
2018-12-26T20:13:53.924Z,45.90
2018-12-26T20:16:33.936Z,52.03
2018-12-26T20:19:13.761Z,47.43
2018-12-26T20:21:53.896Z,52.93
2018-12-26T20:24:34.088Z,46.47
2018-12-26T20:27:15.024Z,48.83
2018-12-26T20:29:55.098Z,47.17
2018-12-26T20:32:35.488Z,48.17
2018-12-26T20:35:15.441Z,46.17
2018-12-26T20:37:55.432Z,47.63
2018-12-26T20:40:35.324Z,54.67
2018-12-26T20:43:15.170Z,48.77
2018-12-26T20:45:55.380Z,44.90
2018-12-26T20:48:35.272Z,50.13
2018-12-26T20:51:15.328Z,46.00
2018-12-26T20:53:55.360Z,50.73
2018-12-26T20:56:35.344Z,47.17
2018-12-26T20:59:15.455Z,53.87
2018-12-26T21:01:55.355Z,46.10
2018-12-26T21:08:00.442Z,43.13
2018-12-26T21:10:40.702Z,50.67
2018-12-26T21:13:20.600Z,47.90
2018-12-26T21:16:01.688Z,46.60
2018-12-26T21:18:41.829Z,43.33
2018-12-26T21:21:21.865Z,44.43
2018-12-26T21:24:01.814Z,43.13
2018-12-26T21:26:43.814Z,43.67
2018-12-26T21:29:24.516Z,40.33
2018-12-26T21:32:04.682Z,40.43
2018-12-26T21:37:53.084Z,38.40
2018-12-26T21:40:33.144Z,45.87
2018-12-26T21:43:13.259Z,42.33
2018-12-26T21:45:53.332Z,49.30
2018-12-26T21:48:33.227Z,45.67
2018-12-26T21:51:13.908Z,45.67
2018-12-26T21:53:53.911Z,42.20
2018-12-26T21:56:33.825Z,43.10
2018-12-26T22:02:22.843Z,39.40
2018-12-26T22:05:04.180Z,38.00
2018-12-26T22:07:44.287Z,38.03
2018-12-26T22:10:24.247Z,36.37
2018-12-26T22:16:29.667Z,38.00
2018-12-26T22:19:09.522Z,35.70
2018-12-26T22:21:49.511Z,37.10
2018-12-26T22:24:29.522Z,36.20
2018-12-26T22:27:09.708Z,39.33
2018-12-26T22:29:49.648Z,34.20
2018-12-26T22:32:30.813Z,34.13
2018-12-26T22:35:10.647Z,37.67
2018-12-26T22:37:50.768Z,41.20
2018-12-26T22:44:10.121Z,35.77
2018-12-26T22:46:50.111Z,36.33
2018-12-26T22:49:30.155Z,34.60
2018-12-26T22:52:10.170Z,33.47
2018-12-26T22:54:50.066Z,34.27
2018-12-26T22:57:32.113Z,34.77
2018-12-26T23:00:14.908Z,35.50
2018-12-26T23:02:54.978Z,35.17
2018-12-26T23:05:36.769Z,32.57
2018-12-26T23:08:18.898Z,36.07
2018-12-26T23:10:59.067Z,33.10
2018-12-26T23:16:47.289Z,35.03
2018-12-26T23:22:35.389Z,31.80
2018-12-26T23:25:15.315Z,34.00
2018-12-26T23:27:55.268Z,33.50
2018-12-26T23:34:13.815Z,34.43
2018-12-26T23:36:53.693Z,34.27
2018-12-26T23:39:33.500Z,39.20
2018-12-26T23:42:13.499Z,37.73
2018-12-26T23:48:01.830Z,36.97
2018-12-26T23:50:41.465Z,33.50
2018-12-26T23:53:21.535Z,32.77
2018-12-26T23:56:01.642Z,34.20
2018-12-26T23:58:41.696Z,37.27
